Pagrindinis puslapis
METAR-TAF:

METAR-TAF

Oro uostai :

Port Morsbis, Papua Naujoji Gvinėja

platuma: 09-26S, ilguma: 147-13E, Aukštis: 38 m

Dabartinis oras

Ataskaita buvo paskelbta 1 valandą ir 10 minutes, ne 01:00 UTC
Vėjas 15 kt iš Pietų/Pietryčių
Temperatūra 28°C
Drėgmė 74%
Slėgis 1014 hPa
Matomumas 10 km arba daugiau
Mažai debesys ne aukštis 2000 ft
Išsisklaidę debesys ne aukštis 4000 ft
migla

METAR: AYPY 170100Z 16015KT 9999 HZ FEW020 SCT040 28/23 Q1014

Laikas: 12:10 (02:10 UTC)

Prognozė

Ataskaita buvo paskelbta 4 valandos ir 0 minutes, ne 22:10 UTC
Prognozė galioja nuo 17 metu 00 UTC su 17 metu 24 UTC
Vėjas 15 kt iš Pietų/Pietryčių
Matomumas: 5000 m
Išsisklaidę debesys ne aukštis 1600 ft
Su prošvaistėmis ne aukštis 3000 ft
Su prošvaistėmis ne aukštis 800 ft

TAF: AYPY 162210Z 1700/1724 16015KT 9999 -R ADZ Z SCT016 BKN030 INTER 1706/1712 5000 +R ADZ Z BKN008

Orai ataskaitas ir orų prognozės (METAR, TAF).

turimą stotys yra geltonos ir raudonos taškus žemėlapyje.

Perkelti pele per norėdami pamatyti stoties vardą.

Tada spustelėkite, norėdami matyti oro stebėjimo ir prognozės.

Norėdami pakeisti žemėlapį: spustelėkite ant žalios mygtukų su juodo kryžiaus žemyn,; žalią mygtuką su brūkšneliu, jei norite nutolinti; arba žalių rodyklių gretimoms žemėlapius.


METAR-TAF: